Time;durP1;ratioP1;P1;durP2;ratioP2;P2;SDS_P1;SDS_P2;PMS_P1;PMS_P2;Temp;Humidity;BMP_temperature;BMP_pressure;BME280_temperature;BME280_humidity;BME280_pressure;Samples;Min_cycle;Max_cycle;Signal;HPM_P1;HPM_P2
2021/08/06 00:01:05;;;;;;;;;;;23.80;47.60;;;;;;1583776;74;731;-76
2021/08/06 00:03:07;;;;;;;;;;;23.80;47.60;;;;;;1579469;74;681;-77
2021/08/06 00:05:09;;;;;;;;;;;23.80;47.50;;;;;;1575839;74;799;-75
2021/08/06 00:07:12;;;;;;;;;;;23.70;47.60;;;;;;1583280;74;1114;-75
2021/08/06 00:09:13;;;;;;;;;;;23.80;47.50;;;;;;1578531;74;733;-75
2021/08/06 00:11:16;;;;;;;;;;;23.80;47.50;;;;;;1578988;74;711;-75
2021/08/06 00:13:17;;;;;;;;;;;23.80;47.50;;;;;;1584823;74;774;-75
2021/08/06 00:15:19;;;;;;;;;;;23.70;47.50;;;;;;1561265;74;1949;-78
2021/08/06 00:17:21;;;;;;;;;;;23.80;47.50;;;;;;1572171;74;1374;-75
2021/08/06 00:19:23;;;;;;;;;;;23.70;47.50;;;;;;1575619;74;705;-75
2021/08/06 00:21:25;;;;;;;;;;;23.70;47.60;;;;;;1582982;74;712;-75
2021/08/06 00:23:28;;;;;;;;;;;23.80;47.50;;;;;;1577429;74;734;-76
2021/08/06 00:25:30;;;;;;;;;;;23.80;47.50;;;;;;1514127;77;664;-75
2021/08/06 00:27:32;;;;;;;;;;;23.80;47.50;;;;;;1548427;75;1138;-77
2021/08/06 00:29:34;;;;;;;;;;;23.80;47.40;;;;;;1521568;77;716;-75
2021/08/06 00:31:36;;;;;;;;;;;23.80;47.50;;;;;;1527991;77;728;-77
2021/08/06 00:33:38;;;;;;;;;;;23.80;47.50;;;;;;1532861;77;668;-75
2021/08/06 00:35:40;;;;;;;;;;;23.80;47.50;;;;;;1510130;77;692;-75
2021/08/06 00:37:42;;;;;;;;;;;23.80;47.50;;;;;;1504518;77;1196;-77
2021/08/06 00:39:44;;;;;;;;;;;23.80;47.40;;;;;;1510958;77;734;-75
2021/08/06 00:41:46;;;;;;;;;;;23.80;47.30;;;;;;1553265;75;716;-78
2021/08/06 00:43:48;;;;;;;;;;;23.80;47.20;;;;;;1547861;75;724;-75
2021/08/06 00:45:49;;;;;;;;;;;23.80;47.30;;;;;;1578257;74;707;-75
2021/08/06 00:47:51;;;;;;;;;;;23.70;47.30;;;;;;1579700;74;1078;-76
2021/08/06 00:49:53;;;;;;;;;;;23.80;47.30;;;;;;1575524;74;792;-77
2021/08/06 00:51:55;;;;;;;;;;;23.90;47.30;;;;;;1579337;74;733;-75
2021/08/06 00:53:57;;;;;;;;;;;23.80;47.20;;;;;;1572374;74;1940;-74
2021/08/06 00:55:59;;;;;;;;;;;23.80;47.20;;;;;;1584879;74;727;-75
2021/08/06 00:58:01;;;;;;;;;;;23.80;47.20;;;;;;1566051;74;1222;-77
2021/08/06 01:00:04;;;;;;;;;;;23.80;47.20;;;;;;1571753;74;743;-74
2021/08/06 01:02:10;;;;;;;;;;;23.80;47.20;;;;;;1584074;74;805;-77
2021/08/06 01:04:14;;;;;;;;;;;23.90;47.20;;;;;;1576257;74;946;-74
2021/08/06 01:06:17;;;;;;;;;;;23.80;47.10;;;;;;1589019;74;1057;-75
2021/08/06 01:08:23;;;;;;;;;;;23.90;47.10;;;;;;1591544;74;1198;-76
2021/08/06 01:10:27;;;;;;;;;;;23.90;47.10;;;;;;1581549;74;661;-75
2021/08/06 01:12:33;;;;;;;;;;;23.80;47.20;;;;;;1559859;74;660;-75
2021/08/06 01:14:36;;;;;;;;;;;23.80;47.20;;;;;;1560232;74;1939;-75
2021/08/06 01:16:38;;;;;;;;;;;23.80;47.10;;;;;;1580143;74;752;-76
2021/08/06 01:18:44;;;;;;;;;;;23.80;47.10;;;;;;1583645;74;1112;-77
2021/08/06 01:20:47;;;;;;;;;;;23.80;47.10;;;;;;1565968;73;1048;-75
2021/08/06 01:23:03;;;;;;;;;;;23.80;47.00;;;;;;1572101;74;749;-76
2021/08/06 01:25:06;;;;;;;;;;;23.80;47.10;;;;;;1588488;74;738;-75
2021/08/06 01:27:08;;;;;;;;;;;23.70;47.00;;;;;;1574084;74;1138;-75
2021/08/06 01:29:10;;;;;;;;;;;23.70;47.10;;;;;;1562517;70;221014;-65
2021/08/06 01:31:12;;;;;;;;;;;23.80;47.00;;;;;;1557765;74;798;-65
2021/08/06 01:33:14;;;;;;;;;;;23.70;46.90;;;;;;1544744;74;1174;-65
2021/08/06 01:35:16;;;;;;;;;;;23.80;46.90;;;;;;1538398;76;1957;-64
2021/08/06 01:37:18;;;;;;;;;;;23.90;46.90;;;;;;1540276;75;717;-64
2021/08/06 01:39:20;;;;;;;;;;;23.80;46.80;;;;;;1542138;75;771;-63
2021/08/06 01:41:29;;;;;;;;;;;23.90;46.90;;;;;;1541459;75;758;-64
2021/08/06 01:43:33;;;;;;;;;;;23.90;46.80;;;;;;1554445;74;1146;-64
2021/08/06 01:45:37;;;;;;;;;;;23.80;46.70;;;;;;1548841;75;797;-66
2021/08/06 01:47:40;;;;;;;;;;;23.80;46.70;;;;;;1540702;75;695;-64
2021/08/06 01:49:42;;;;;;;;;;;23.90;46.80;;;;;;1551888;75;667;-64
2021/08/06 01:51:45;;;;;;;;;;;23.80;46.80;;;;;;1546205;75;643;-64
2021/08/06 01:53:46;;;;;;;;;;;23.80;46.80;;;;;;1547649;75;1143;-64
2021/08/06 01:55:53;;;;;;;;;;;23.80;46.70;;;;;;1540503;70;218604;-70
2021/08/06 01:57:55;;;;;;;;;;;23.80;46.60;;;;;;1535045;76;706;-67
2021/08/06 01:59:58;;;;;;;;;;;23.80;46.80;;;;;;1542341;75;667;-67
2021/08/06 02:02:00;;;;;;;;;;;23.70;46.60;;;;;;1545023;75;751;-66
2021/08/06 02:04:01;;;;;;;;;;;23.80;46.60;;;;;;1544708;75;715;-67
2021/08/06 02:06:03;;;;;;;;;;;23.80;46.70;;;;;;1548159;74;1208;-68
2021/08/06 02:08:05;;;;;;;;;;;23.80;46.80;;;;;;1571739;74;799;-68
2021/08/06 02:10:07;;;;;;;;;;;23.80;46.80;;;;;;1540008;75;740;-70
2021/08/06 02:12:09;;;;;;;;;;;23.80;46.80;;;;;;1561535;74;731;-70
2021/08/06 02:14:11;;;;;;;;;;;23.80;46.80;;;;;;1571010;74;793;-66
2021/08/06 02:16:13;;;;;;;;;;;23.80;46.80;;;;;;1551176;74;1914;-68
2021/08/06 02:18:22;;;;;;;;;;;23.80;46.70;;;;;;1556650;74;757;-67
2021/08/06 02:20:19;;;;;;;;;;;23.80;46.70;;;;;;1577773;74;1719;-67
2021/08/06 02:22:21;;;;;;;;;;;23.80;46.50;;;;;;1560832;74;694;-67
2021/08/06 02:24:23;;;;;;;;;;;23.80;46.50;;;;;;1559869;74;713;-66
2021/08/06 02:26:25;;;;;;;;;;;23.80;46.50;;;;;;1567281;74;1150;-66
2021/08/06 02:28:27;;;;;;;;;;;23.80;46.50;;;;;;1578889;74;775;-68
2021/08/06 02:30:29;;;;;;;;;;;23.70;46.40;;;;;;1553645;74;708;-69
2021/08/06 02:32:31;;;;;;;;;;;23.80;46.40;;;;;;1580720;74;759;-67
2021/08/06 02:34:33;;;;;;;;;;;23.80;46.40;;;;;;1562949;74;1939;-70
2021/08/06 02:36:35;;;;;;;;;;;23.80;46.30;;;;;;1568024;74;1174;-70
2021/08/06 02:38:37;;;;;;;;;;;23.80;46.30;;;;;;1570291;74;718;-67
2021/08/06 02:40:38;;;;;;;;;;;23.80;46.30;;;;;;1563312;74;788;-66
2021/08/06 02:42:40;;;;;;;;;;;23.80;46.40;;;;;;1564480;74;765;-66
2021/08/06 02:44:42;;;;;;;;;;;23.80;46.40;;;;;;1573491;74;754;-67
2021/08/06 02:46:44;;;;;;;;;;;23.80;46.50;;;;;;1567689;74;1129;-66
2021/08/06 02:48:46;;;;;;;;;;;23.80;46.50;;;;;;1575518;74;723;-67
2021/08/06 02:50:48;;;;;;;;;;;23.80;46.40;;;;;;1573827;74;782;-68
2021/08/06 02:52:50;;;;;;;;;;;23.80;46.50;;;;;;1564196;74;822;-73
2021/08/06 02:54:52;;;;;;;;;;;23.80;46.70;;;;;;1570727;74;1944;-72
2021/08/06 02:56:53;;;;;;;;;;;23.90;47.00;;;;;;1562433;74;1086;-70
2021/08/06 02:58:55;;;;;;;;;;;23.80;46.90;;;;;;1581078;74;758;-71
2021/08/06 03:00:57;;;;;;;;;;;23.80;46.90;;;;;;1561168;74;874;-71
2021/08/06 03:02:59;;;;;;;;;;;23.80;47.00;;;;;;1564451;74;760;-70
2021/08/06 03:05:01;;;;;;;;;;;23.90;47.20;;;;;;1554273;74;748;-70
2021/08/06 03:07:03;;;;;;;;;;;23.80;47.10;;;;;;1566023;74;1109;-71
2021/08/06 03:09:05;;;;;;;;;;;23.80;47.10;;;;;;1554554;74;804;-72
2021/08/06 03:11:07;;;;;;;;;;;23.80;47.20;;;;;;1557244;74;728;-70
2021/08/06 03:13:08;;;;;;;;;;;23.80;47.30;;;;;;1562381;74;745;-71
2021/08/06 03:15:11;;;;;;;;;;;23.90;47.30;;;;;;1563201;74;1931;-71
2021/08/06 03:17:13;;;;;;;;;;;23.80;47.30;;;;;;1553045;74;1135;-72
2021/08/06 03:19:14;;;;;;;;;;;23.90;47.40;;;;;;1569520;74;849;-73
2021/08/06 03:21:16;;;;;;;;;;;23.90;47.40;;;;;;1556583;74;752;-73
2021/08/06 03:23:18;;;;;;;;;;;23.90;47.40;;;;;;1570581;74;726;-72
2021/08/06 03:25:20;;;;;;;;;;;23.90;47.40;;;;;;1575548;74;1107;-73
2021/08/06 03:27:22;;;;;;;;;;;23.90;47.40;;;;;;1565017;74;774;-73
2021/08/06 03:29:24;;;;;;;;;;;23.80;47.40;;;;;;1568389;74;777;-73
2021/08/06 03:31:26;;;;;;;;;;;23.80;47.40;;;;;;1565683;74;722;-73
2021/08/06 03:33:28;;;;;;;;;;;23.90;47.50;;;;;;1574858;74;730;-72
2021/08/06 03:35:29;;;;;;;;;;;23.80;47.40;;;;;;1576093;74;1921;-75
2021/08/06 03:37:31;;;;;;;;;;;23.80;47.40;;;;;;1571852;74;835;-74
2021/08/06 03:39:33;;;;;;;;;;;23.80;47.30;;;;;;1566160;74;782;-72
2021/08/06 03:41:35;;;;;;;;;;;23.80;47.30;;;;;;1560756;74;731;-71
2021/08/06 03:43:37;;;;;;;;;;;23.80;47.40;;;;;;1575095;74;810;-72
2021/08/06 03:45:39;;;;;;;;;;;23.80;47.50;;;;;;1567540;74;1136;-70
2021/08/06 03:47:41;;;;;;;;;;;23.80;47.50;;;;;;1557430;74;754;-71
2021/08/06 03:49:43;;;;;;;;;;;23.80;47.50;;;;;;1556726;74;831;-70
2021/08/06 03:51:45;;;;;;;;;;;23.90;47.60;;;;;;1557431;74;708;-75
2021/08/06 03:53:47;;;;;;;;;;;23.80;47.60;;;;;;1555782;74;734;-73
2021/08/06 03:55:48;;;;;;;;;;;23.80;47.60;;;;;;1558085;74;1936;-73
2021/08/06 03:57:54;;;;;;;;;;;23.80;47.80;;;;;;1554043;74;735;-74
2021/08/06 03:59:55;;;;;;;;;;;23.90;47.90;;;;;;1546442;74;750;-75
2021/08/06 04:01:57;;;;;;;;;;;23.90;47.90;;;;;;1558162;74;740;-75
2021/08/06 04:03:59;;;;;;;;;;;23.90;47.70;;;;;;1560974;74;836;-74
2021/08/06 04:06:01;;;;;;;;;;;23.80;47.70;;;;;;1554082;74;1087;-77
2021/08/06 04:08:06;;;;;;;;;;;23.90;47.50;;;;;;1552369;74;648;-74
2021/08/06 04:10:08;;;;;;;;;;;23.90;47.60;;;;;;1549628;74;734;-74
2021/08/06 04:12:10;;;;;;;;;;;23.90;47.60;;;;;;1557321;74;752;-76
2021/08/06 04:14:12;;;;;;;;;;;23.90;47.50;;;;;;1551714;74;744;-75
2021/08/06 04:16:14;;;;;;;;;;;23.90;47.50;;;;;;1555349;74;1939;-75
2021/08/06 04:18:16;;;;;;;;;;;23.80;47.30;;;;;;1552734;74;738;-73
2021/08/06 04:20:18;;;;;;;;;;;23.80;47.30;;;;;;1558594;74;856;-77
2021/08/06 04:22:20;;;;;;;;;;;23.80;47.30;;;;;;1560050;74;731;-73
2021/08/06 04:24:22;;;;;;;;;;;23.90;47.30;;;;;;1574046;74;734;-73
2021/08/06 04:26:24;;;;;;;;;;;23.80;47.30;;;;;;1560215;74;1125;-75
2021/08/06 04:28:26;;;;;;;;;;;23.80;47.40;;;;;;1569883;74;764;-71
2021/08/06 04:30:27;;;;;;;;;;;23.80;47.60;;;;;;1550241;74;761;-72
2021/08/06 04:32:29;;;;;;;;;;;23.80;47.60;;;;;;1554252;74;792;-73
2021/08/06 04:34:31;;;;;;;;;;;23.80;47.50;;;;;;1548952;74;780;-73
2021/08/06 04:36:33;;;;;;;;;;;23.80;47.30;;;;;;1548349;74;1935;-73
2021/08/06 04:38:35;;;;;;;;;;;23.80;47.20;;;;;;1548384;74;776;-74
2021/08/06 04:40:37;;;;;;;;;;;23.80;47.20;;;;;;1544563;74;1014;-72
2021/08/06 04:42:39;;;;;;;;;;;23.80;47.30;;;;;;1555768;74;773;-73
2021/08/06 04:44:41;;;;;;;;;;;23.80;47.30;;;;;;1553846;74;734;-74
2021/08/06 04:46:43;;;;;;;;;;;23.70;47.30;;;;;;1553114;74;1137;-75
2021/08/06 04:48:45;;;;;;;;;;;23.80;47.20;;;;;;1546609;74;757;-74
2021/08/06 04:50:47;;;;;;;;;;;23.80;47.30;;;;;;1549046;74;755;-73
2021/08/06 04:52:49;;;;;;;;;;;23.80;47.30;;;;;;1549188;74;785;-73
2021/08/06 04:54:50;;;;;;;;;;;23.70;47.30;;;;;;1551048;74;732;-74
2021/08/06 04:56:53;;;;;;;;;;;23.80;47.60;;;;;;1544798;74;1988;-70
2021/08/06 04:58:55;;;;;;;;;;;23.70;48.00;;;;;;1545954;75;765;-71
2021/08/06 05:00:57;;;;;;;;;;;23.80;47.80;;;;;;1553681;74;735;-68
2021/08/06 05:02:59;;;;;;;;;;;23.80;47.40;;;;;;1545110;74;734;-70
2021/08/06 05:05:05;;;;;;;;;;;23.80;47.20;;;;;;1552517;74;717;-71
2021/08/06 05:07:04;;;;;;;;;;;23.80;47.10;;;;;;1548143;74;1259;-73
2021/08/06 05:09:06;;;;;;;;;;;23.70;47.10;;;;;;1543820;74;728;-70
2021/08/06 05:11:08;;;;;;;;;;;23.70;47.00;;;;;;1544081;74;758;-70
2021/08/06 05:13:10;;;;;;;;;;;23.70;47.00;;;;;;1543700;74;771;-71
2021/08/06 05:15:12;;;;;;;;;;;23.80;47.10;;;;;;1549819;74;746;-72
2021/08/06 05:17:13;;;;;;;;;;;23.70;47.10;;;;;;1544202;74;1948;-73
2021/08/06 05:19:15;;;;;;;;;;;23.70;47.10;;;;;;1543440;74;663;-70
2021/08/06 05:21:17;;;;;;;;;;;23.70;47.00;;;;;;1551591;74;790;-73
2021/08/06 05:23:19;;;;;;;;;;;23.70;47.10;;;;;;1548425;74;796;-76
2021/08/06 05:25:21;;;;;;;;;;;23.80;47.10;;;;;;1545741;74;1123;-71
2021/08/06 05:27:23;;;;;;;;;;;23.70;47.10;;;;;;1554885;74;743;-71
2021/08/06 05:29:25;;;;;;;;;;;23.70;47.10;;;;;;1544080;74;774;-72
2021/08/06 05:31:27;;;;;;;;;;;23.70;47.10;;;;;;1549447;74;759;-75
2021/08/06 05:33:28;;;;;;;;;;;23.70;47.10;;;;;;1553389;74;734;-71
2021/08/06 05:35:30;;;;;;;;;;;23.70;47.10;;;;;;1548996;74;1941;-71
2021/08/06 05:37:32;;;;;;;;;;;23.70;47.10;;;;;;1547136;74;775;-74
2021/08/06 05:39:34;;;;;;;;;;;23.70;47.10;;;;;;1544206;74;796;-75
2021/08/06 05:41:36;;;;;;;;;;;23.70;47.00;;;;;;1552020;74;719;-71
2021/08/06 05:43:38;;;;;;;;;;;23.70;47.10;;;;;;1550776;74;669;-72
2021/08/06 05:45:40;;;;;;;;;;;23.70;47.00;;;;;;1550599;74;1154;-72
2021/08/06 05:47:42;;;;;;;;;;;23.70;47.10;;;;;;1550573;74;722;-72
2021/08/06 05:49:44;;;;;;;;;;;23.70;47.10;;;;;;1552367;74;775;-71
2021/08/06 05:51:46;;;;;;;;;;;23.70;47.20;;;;;;1551848;74;781;-71
2021/08/06 05:53:48;;;;;;;;;;;23.70;47.30;;;;;;1551806;74;837;-71
2021/08/06 05:55:50;;;;;;;;;;;23.70;47.30;;;;;;1546018;74;1949;-71
2021/08/06 05:57:52;;;;;;;;;;;23.70;47.30;;;;;;1546683;75;791;-70
2021/08/06 05:59:54;;;;;;;;;;;23.70;47.30;;;;;;1547529;74;737;-71
2021/08/06 06:01:55;;;;;;;;;;;23.70;47.40;;;;;;1548175;74;709;-73
2021/08/06 06:03:57;;;;;;;;;;;23.80;47.50;;;;;;1545760;74;764;-68
2021/08/06 06:05:59;;;;;;;;;;;23.70;47.60;;;;;;1544416;74;1178;-70
2021/08/06 06:08:01;;;;;;;;;;;23.70;47.60;;;;;;1548527;74;708;-72
2021/08/06 06:10:03;;;;;;;;;;;23.70;47.70;;;;;;1544202;74;745;-71
2021/08/06 06:12:05;;;;;;;;;;;23.80;47.80;;;;;;1543943;74;802;-71
2021/08/06 06:14:07;;;;;;;;;;;23.80;48.10;;;;;;1547063;74;716;-69
2021/08/06 06:16:09;;;;;;;;;;;23.80;48.40;;;;;;1579424;74;1952;-68
2021/08/06 06:18:11;;;;;;;;;;;23.90;48.40;;;;;;1567721;74;659;-76
2021/08/06 06:20:13;;;;;;;;;;;23.90;48.40;;;;;;1557904;74;820;-73
2021/08/06 06:22:14;;;;;;;;;;;24.00;48.10;;;;;;1559552;74;827;-70
2021/08/06 06:24:16;;;;;;;;;;;24.00;48.10;;;;;;1562816;74;743;-68
2021/08/06 06:26:18;;;;;;;;;;;24.00;48.10;;;;;;1563947;74;1132;-78
2021/08/06 06:28:21;;;;;;;;;;;24.00;47.90;;;;;;1559701;74;739;-77
2021/08/06 06:30:24;;;;;;;;;;;24.00;47.80;;;;;;1565642;74;814;-77
2021/08/06 06:32:26;;;;;;;;;;;24.00;47.80;;;;;;1558922;74;773;-71
2021/08/06 06:34:28;;;;;;;;;;;24.00;47.60;;;;;;1564043;74;835;-73
2021/08/06 06:36:30;;;;;;;;;;;24.00;47.60;;;;;;1571297;74;1959;-70
2021/08/06 06:38:31;;;;;;;;;;;24.00;47.50;;;;;;1565383;74;817;-74
2021/08/06 06:40:33;;;;;;;;;;;24.00;47.50;;;;;;1570176;74;704;-74
2021/08/06 06:42:35;;;;;;;;;;;24.00;47.60;;;;;;1566459;74;787;-77
2021/08/06 06:44:37;;;;;;;;;;;23.90;47.60;;;;;;1575801;74;733;-75
2021/08/06 06:46:39;;;;;;;;;;;24.00;47.70;;;;;;1560402;74;1111;-74
2021/08/06 06:48:41;;;;;;;;;;;23.90;47.90;;;;;;1569283;74;811;-73
2021/08/06 06:50:43;;;;;;;;;;;23.90;47.90;;;;;;1564152;74;775;-73
2021/08/06 06:52:45;;;;;;;;;;;23.90;47.80;;;;;;1566797;74;812;-73
2021/08/06 06:54:46;;;;;;;;;;;23.80;47.80;;;;;;1558970;74;731;-76
2021/08/06 06:56:48;;;;;;;;;;;23.80;47.90;;;;;;1553142;74;1947;-70
2021/08/06 06:58:50;;;;;;;;;;;23.90;48.10;;;;;;1560325;74;804;-70
2021/08/06 07:00:54;;;;;;;;;;;23.80;48.00;;;;;;1564534;74;758;-70
2021/08/06 07:02:56;;;;;;;;;;;23.80;48.10;;;;;;1559010;75;715;-71
2021/08/06 07:04:57;;;;;;;;;;;23.80;48.20;;;;;;1564046;74;799;-73
2021/08/06 07:06:59;;;;;;;;;;;23.80;48.30;;;;;;1561247;74;1184;-70
2021/08/06 07:09:01;;;;;;;;;;;23.80;48.40;;;;;;1555340;74;725;-70
2021/08/06 07:11:04;;;;;;;;;;;23.70;48.50;;;;;;1577944;74;756;-70
2021/08/06 07:13:06;;;;;;;;;;;23.70;48.50;;;;;;1555204;74;854;-69
2021/08/06 07:15:09;;;;;;;;;;;23.70;48.50;;;;;;1553299;74;725;-72
2021/08/06 07:17:11;;;;;;;;;;;23.70;48.50;;;;;;1554154;74;1939;-70
2021/08/06 07:19:12;;;;;;;;;;;23.60;48.40;;;;;;1564427;74;763;-72
2021/08/06 07:21:14;;;;;;;;;;;23.60;48.40;;;;;;1553951;74;807;-72
2021/08/06 07:23:16;;;;;;;;;;;23.70;48.70;;;;;;1556058;74;770;-70
2021/08/06 07:25:18;;;;;;;;;;;23.70;48.70;;;;;;1553892;74;1144;-70
2021/08/06 07:27:20;;;;;;;;;;;23.60;48.60;;;;;;1550182;74;813;-69
2021/08/06 07:29:22;;;;;;;;;;;23.70;48.90;;;;;;1549682;74;794;-70
2021/08/06 07:31:24;;;;;;;;;;;23.70;48.90;;;;;;1556021;74;774;-69
2021/08/06 07:33:26;;;;;;;;;;;23.70;48.90;;;;;;1561166;74;809;-69
2021/08/06 07:35:31;;;;;;;;;;;23.60;48.80;;;;;;1553578;74;1113;-70
2021/08/06 07:37:31;;;;;;;;;;;23.60;48.90;;;;;;1565471;74;1909;-70
2021/08/06 07:39:33;;;;;;;;;;;23.60;48.90;;;;;;1556309;74;797;-70
2021/08/06 07:41:35;;;;;;;;;;;23.60;49.00;;;;;;1556206;74;828;-69
2021/08/06 07:43:37;;;;;;;;;;;23.60;49.10;;;;;;1568735;74;732;-79
2021/08/06 07:45:39;;;;;;;;;;;23.60;49.20;;;;;;1557706;74;1176;-69
2021/08/06 07:47:41;;;;;;;;;;;23.70;49.40;;;;;;1566359;74;708;-73
2021/08/06 07:49:43;;;;;;;;;;;23.70;49.50;;;;;;1575505;74;812;-66
2021/08/06 07:51:44;;;;;;;;;;;23.70;49.40;;;;;;1568812;74;693;-70
2021/08/06 07:53:46;;;;;;;;;;;23.70;49.70;;;;;;1573124;74;784;-72
2021/08/06 07:55:48;;;;;;;;;;;23.60;49.70;;;;;;1550258;71;223957;-79
2021/08/06 07:57:50;;;;;;;;;;;23.70;49.90;;;;;;1545396;75;1944;-78
2021/08/06 07:59:52;;;;;;;;;;;23.60;49.70;;;;;;1526586;75;714;-78
2021/08/06 08:01:54;;;;;;;;;;;23.60;49.80;;;;;;1542835;75;1297;-78
2021/08/06 08:03:56;;;;;;;;;;;23.60;50.00;;;;;;1522177;77;695;-78
2021/08/06 08:05:59;;;;;;;;;;;23.60;50.20;;;;;;1521388;77;804;-79
2021/08/06 08:08:01;;;;;;;;;;;23.60;50.10;;;;;;1518129;77;636;-79
2021/08/06 08:10:04;;;;;;;;;;;23.60;50.00;;;;;;1517406;77;755;-82
2021/08/06 08:12:06;;;;;;;;;;;23.60;50.10;;;;;;1510703;77;1198;-79
2021/08/06 08:14:08;;;;;;;;;;;23.60;50.10;;;;;;1516917;77;678;-78
2021/08/06 08:16:10;;;;;;;;;;;23.50;50.20;;;;;;1520340;77;616;-78
2021/08/06 08:18:12;;;;;;;;;;;23.50;50.60;;;;;;1509184;77;1928;-82
2021/08/06 08:20:15;;;;;;;;;;;23.50;50.60;;;;;;1494881;77;762;-79
2021/08/06 08:22:17;;;;;;;;;;;23.60;50.60;;;;;;1492050;77;1178;-79
2021/08/06 08:24:19;;;;;;;;;;;23.50;51.00;;;;;;1506507;77;653;-77
2021/08/06 08:26:21;;;;;;;;;;;23.50;51.20;;;;;;1519240;77;758;-80
2021/08/06 08:28:23;;;;;;;;;;;23.60;50.90;;;;;;1521627;76;727;-78
2021/08/06 08:30:25;;;;;;;;;;;23.60;51.20;;;;;;1512401;77;776;-76
2021/08/06 08:32:26;;;;;;;;;;;23.60;51.00;;;;;;1518175;77;1145;-76
2021/08/06 08:34:28;;;;;;;;;;;23.60;51.80;;;;;;1529014;77;753;-77
2021/08/06 08:36:30;;;;;;;;;;;23.60;51.50;;;;;;1513834;77;816;-76
2021/08/06 08:38:32;;;;;;;;;;;23.50;52.20;;;;;;1519460;77;1936;-77
2021/08/06 08:40:34;;;;;;;;;;;23.60;52.50;;;;;;1522938;77;708;-77
2021/08/06 08:42:36;;;;;;;;;;;23.60;52.10;;;;;;1522574;77;1157;-77
2021/08/06 08:44:38;;;;;;;;;;;23.60;51.80;;;;;;1523849;77;832;-77
2021/08/06 08:46:40;;;;;;;;;;;23.60;51.80;;;;;;1513945;77;723;-77
2021/08/06 08:48:42;;;;;;;;;;;23.70;51.50;;;;;;1520018;77;825;-77
2021/08/06 08:50:44;;;;;;;;;;;23.80;51.80;;;;;;1516450;77;797;-77
2021/08/06 08:52:46;;;;;;;;;;;23.80;51.50;;;;;;1515531;77;1104;-78
2021/08/06 08:54:48;;;;;;;;;;;23.70;51.50;;;;;;1511093;77;785;-77
2021/08/06 08:56:50;;;;;;;;;;;23.90;51.40;;;;;;1506158;77;1945;-77
2021/08/06 08:58:52;;;;;;;;;;;23.90;51.30;;;;;;1513342;77;692;-77
2021/08/06 09:00:53;;;;;;;;;;;23.90;51.20;;;;;;1520036;77;945;-76
2021/08/06 09:02:55;;;;;;;;;;;23.90;51.10;;;;;;1521386;77;1143;-76
2021/08/06 09:05:08;;;;;;;;;;;23.90;50.90;;;;;;1517076;77;676;-76
2021/08/06 09:07:12;;;;;;;;;;;23.90;50.80;;;;;;1517528;77;1301;-76
2021/08/06 09:09:14;;;;;;;;;;;23.90;50.50;;;;;;1510729;77;810;-76
2021/08/06 09:11:26;;;;;;;;;;;23.80;50.40;;;;;;1520970;77;834;-76
2021/08/06 09:13:28;;;;;;;;;;;23.80;50.50;;;;;;1517958;77;1166;-75
2021/08/06 09:15:47;;;;;;;;;;;23.90;50.50;;;;;;1522554;77;755;-76
2021/08/06 09:17:49;;;;;;;;;;;23.90;50.40;;;;;;1522894;77;1920;-76
2021/08/06 09:19:58;;;;;;;;;;;23.90;50.30;;;;;;1515623;77;704;-76
2021/08/06 09:22:20;;;;;;;;;;;23.80;50.20;;;;;;1512788;77;1143;-76
2021/08/06 09:24:22;;;;;;;;;;;23.80;50.00;;;;;;1509489;77;707;-76
2021/08/06 09:26:28;;;;;;;;;;;23.90;50.00;;;;;;1514820;77;695;-76
2021/08/06 09:28:30;;;;;;;;;;;23.80;50.20;;;;;;1520531;77;681;-77
2021/08/06 09:30:33;;;;;;;;;;;23.80;50.60;;;;;;1511545;77;799;-76
2021/08/06 09:32:44;;;;;;;;;;;23.80;50.40;;;;;;1511184;77;1094;-76
2021/08/06 09:34:46;;;;;;;;;;;23.70;50.30;;;;;;1521388;77;724;-76
2021/08/06 09:36:52;;;;;;;;;;;23.70;50.00;;;;;;1511995;77;735;-79
2021/08/06 09:38:54;;;;;;;;;;;23.70;50.00;;;;;;1515496;77;1927;-78
2021/08/06 09:40:56;;;;;;;;;;;23.80;49.50;;;;;;1514733;77;731;-79
2021/08/06 09:42:59;;;;;;;;;;;23.80;49.30;;;;;;1511321;77;1145;-80
2021/08/06 09:45:02;;;;;;;;;;;23.70;49.10;;;;;;1513599;77;815;-79
2021/08/06 09:47:20;;;;;;;;;;;23.70;49.00;;;;;;1506703;77;791;-79
2021/08/06 09:49:22;;;;;;;;;;;23.70;49.30;;;;;;1510694;77;800;-78
2021/08/06 09:51:25;;;;;;;;;;;23.70;49.20;;;;;;1519646;77;775;-79
2021/08/06 09:53:29;;;;;;;;;;;23.70;49.20;;;;;;1520943;77;1136;-79
2021/08/06 09:55:35;;;;;;;;;;;23.70;48.90;;;;;;1517808;77;2196;-79
2021/08/06 09:57:38;;;;;;;;;;;23.60;48.90;;;;;;1522423;77;1922;-79
2021/08/06 09:59:40;;;;;;;;;;;23.70;48.90;;;;;;1519089;77;716;-79
2021/08/06 10:01:42;;;;;;;;;;;23.60;48.90;;;;;;1513568;77;1088;-79
2021/08/06 10:03:43;;;;;;;;;;;23.50;49.00;;;;;;1520668;77;829;-79
2021/08/06 10:05:45;;;;;;;;;;;23.50;49.00;;;;;;1516921;77;713;-79
2021/08/06 10:07:49;;;;;;;;;;;23.50;49.20;;;;;;1512084;77;807;-79
2021/08/06 10:09:51;;;;;;;;;;;23.50;49.20;;;;;;1514890;77;1100;-79
2021/08/06 10:11:53;;;;;;;;;;;23.40;49.30;;;;;;1512986;77;1174;-79
2021/08/06 10:13:54;;;;;;;;;;;23.50;49.40;;;;;;1513014;77;797;-79
2021/08/06 10:15:56;;;;;;;;;;;23.50;49.30;;;;;;1516239;77;762;-79
2021/08/06 10:17:58;;;;;;;;;;;23.60;49.20;;;;;;1521485;77;1934;-79
2021/08/06 10:20:00;;;;;;;;;;;23.60;49.10;;;;;;1521469;77;722;-79
2021/08/06 10:22:03;;;;;;;;;;;23.60;49.00;;;;;;1514260;77;1095;-79
2021/08/06 10:24:05;;;;;;;;;;;23.50;49.00;;;;;;1511103;77;666;-78
2021/08/06 10:26:10;;;;;;;;;;;23.60;48.70;;;;;;1520017;77;802;-79
2021/08/06 10:28:12;;;;;;;;;;;23.50;48.90;;;;;;1518619;77;803;-79
2021/08/06 10:30:21;;;;;;;;;;;23.50;48.90;;;;;;1517617;77;744;-79
2021/08/06 10:32:23;;;;;;;;;;;23.60;48.90;;;;;;1508614;77;1105;-79
2021/08/06 10:34:25;;;;;;;;;;;23.60;48.80;;;;;;1509151;77;792;-79
2021/08/06 10:36:40;;;;;;;;;;;23.60;48.10;;;;;;1501807;77;786;-79
2021/08/06 10:38:42;;;;;;;;;;;23.70;48.80;;;;;;1517752;77;1945;-79
2021/08/06 10:40:49;;;;;;;;;;;23.60;48.40;;;;;;1522693;77;780;-79
2021/08/06 10:42:51;;;;;;;;;;;23.60;48.60;;;;;;1518541;77;1183;-79
2021/08/06 10:45:00;;;;;;;;;;;23.60;48.40;;;;;;1508771;77;758;-79
2021/08/06 10:47:02;;;;;;;;;;;23.60;48.10;;;;;;1517057;77;1091;-79
2021/08/06 10:49:05;;;;;;;;;;;23.70;48.30;;;;;;1514100;77;1450;-80
2021/08/06 10:51:14;;;;;;;;;;;23.70;47.80;;;;;;1519141;77;1089;-79
2021/08/06 10:53:17;;;;;;;;;;;23.70;47.70;;;;;;1510208;77;1118;-79
2021/08/06 10:55:21;;;;;;;;;;;23.60;48.00;;;;;;1519945;77;809;-79
2021/08/06 10:57:25;;;;;;;;;;;23.60;48.00;;;;;;1515572;77;773;-78
2021/08/06 10:59:28;;;;;;;;;;;23.60;47.90;;;;;;1508081;77;712;-78
2021/08/06 11:01:32;;;;;;;;;;;23.60;47.90;;;;;;1515989;77;1115;-79
2021/08/06 11:03:35;;;;;;;;;;;23.70;47.80;;;;;;1506460;77;1117;-79
2021/08/06 11:05:38;;;;;;;;;;;23.60;47.50;;;;;;1511056;77;702;-78
2021/08/06 11:07:40;;;;;;;;;;;23.70;47.70;;;;;;1505876;77;729;-79
2021/08/06 11:09:42;;;;;;;;;;;23.70;47.70;;;;;;1513851;77;845;-79
2021/08/06 11:12:03;;;;;;;;;;;23.70;47.50;;;;;;1507247;77;1097;-79
2021/08/06 11:14:05;;;;;;;;;;;23.60;47.50;;;;;;1507238;77;658;-82
2021/08/06 11:16:08;;;;;;;;;;;23.70;47.60;;;;;;1509241;77;805;-83
2021/08/06 11:18:10;;;;;;;;;;;23.70;47.10;;;;;;1513741;77;1942;-79
2021/08/06 11:20:13;;;;;;;;;;;23.70;47.40;;;;;;1503258;77;833;-78
2021/08/06 11:22:19;;;;;;;;;;;23.70;47.50;;;;;;1502732;77;1129;-76
2021/08/06 11:24:21;;;;;;;;;;;23.70;47.50;;;;;;1510261;77;783;-76
2021/08/06 11:26:24;;;;;;;;;;;23.70;47.00;;;;;;1508260;77;761;-76
2021/08/06 11:28:25;;;;;;;;;;;23.60;47.50;;;;;;1502949;77;756;-78
2021/08/06 11:30:29;;;;;;;;;;;23.70;47.60;;;;;;1507099;77;721;-76
2021/08/06 11:32:33;;;;;;;;;;;23.70;47.80;;;;;;1504806;77;1835;-76
2021/08/06 11:34:51;;;;;;;;;;;23.70;47.80;;;;;;1511115;77;1138;-77
2021/08/06 11:36:58;;;;;;;;;;;23.70;47.80;;;;;;1524592;77;733;-76
2021/08/06 11:39:04;;;;;;;;;;;23.70;47.60;;;;;;1507110;77;1898;-77
2021/08/06 11:41:06;;;;;;;;;;;23.80;47.60;;;;;;1506481;77;2005;-78
2021/08/06 11:43:14;;;;;;;;;;;23.80;47.80;;;;;;1512907;77;1098;-78
2021/08/06 11:45:20;;;;;;;;;;;23.70;47.70;;;;;;1508338;77;789;-78
2021/08/06 11:47:35;;;;;;;;;;;23.70;47.80;;;;;;1518293;77;754;-77
2021/08/06 11:49:37;;;;;;;;;;;23.60;47.60;;;;;;1520179;77;774;-79
2021/08/06 11:51:44;;;;;;;;;;;23.70;47.60;;;;;;1509291;77;1154;-78
2021/08/06 11:53:45;;;;;;;;;;;23.70;47.60;;;;;;1517252;77;1006;-78
2021/08/06 11:55:48;;;;;;;;;;;23.70;47.20;;;;;;1522768;77;749;-78
2021/08/06 11:57:54;;;;;;;;;;;23.60;47.30;;;;;;1517021;77;1930;-77
2021/08/06 11:59:56;;;;;;;;;;;23.60;47.30;;;;;;1512140;77;863;-78
2021/08/06 12:02:17;;;;;;;;;;;23.60;47.00;;;;;;1527520;76;1215;-79
2021/08/06 12:04:28;;;;;;;;;;;23.50;47.40;;;;;;1515322;77;1010;-77
2021/08/06 12:06:31;;;;;;;;;;;23.50;48.00;;;;;;1503846;77;823;-76
2021/08/06 12:08:34;;;;;;;;;;;23.40;48.60;;;;;;1520751;77;776;-77
2021/08/06 12:10:36;;;;;;;;;;;23.40;48.80;;;;;;1515259;77;717;-77
2021/08/06 12:12:38;;;;;;;;;;;23.50;49.60;;;;;;1514214;77;1178;-75